Time;durP1;ratioP1;P1;durP2;ratioP2;P2;SDS_P1;SDS_P2;PMS_P1;PMS_P2;Temp;Humidity;BMP_temperature;BMP_pressure;BME280_temperature;BME280_humidity;BME280_pressure;Samples;Min_cycle;Max_cycle;Signal;HPM_P1;HPM_P2
2023/08/14 00:00:01;;;;;;;4.72;4.20;;;19.70;99.90;;;;;;5220408;28;20218;-64
2023/08/14 00:02:33;;;;;;;5.03;3.88;;;19.70;99.90;;;;;;5237706;28;20037;-64
2023/08/14 00:05:05;;;;;;;5.95;4.82;;;19.60;99.90;;;;;;5203747;28;20043;-64
2023/08/14 00:07:39;;;;;;;4.95;4.35;;;19.50;99.90;;;;;;5237735;28;20337;-64
2023/08/14 00:10:11;;;;;;;5.20;4.38;;;19.50;99.90;;;;;;5204381;28;20047;-64
2023/08/14 00:12:46;;;;;;;4.78;4.28;;;19.50;99.90;;;;;;5219640;28;20043;-64
2023/08/14 00:15:20;;;;;;;5.03;4.50;;;19.40;99.90;;;;;;5219652;28;20040;-64
2023/08/14 00:17:53;;;;;;;5.28;4.68;;;19.30;99.90;;;;;;5220959;28;20334;-64
2023/08/14 00:20:24;;;;;;;4.70;4.20;;;19.30;99.90;;;;;;5220635;28;20043;-64
2023/08/14 00:23:00;;;;;;;6.68;4.20;;;19.20;99.90;;;;;;5239016;28;20041;-65
2023/08/14 00:25:36;;;;;;;4.97;4.25;;;19.20;99.90;;;;;;5226000;28;20028;-64
2023/08/14 00:28:08;;;;;;;5.85;4.05;;;19.20;99.90;;;;;;5208624;28;20056;-64
2023/08/14 00:30:39;;;;;;;5.25;4.50;;;19.10;99.90;;;;;;5241171;28;20045;-64
2023/08/14 00:33:14;;;;;;;7.80;4.80;;;19.10;99.90;;;;;;5207814;28;20213;-64
2023/08/14 00:35:45;;;;;;;5.22;4.70;;;19.10;99.90;;;;;;5225463;28;20201;-64
2023/08/14 00:38:17;;;;;;;6.40;4.78;;;19.00;99.90;;;;;;5208370;28;20033;-64
2023/08/14 00:40:49;;;;;;;6.65;5.10;;;19.00;99.90;;;;;;5190916;28;20325;-64
2023/08/14 00:43:23;;;;;;;5.53;4.43;;;19.00;99.90;;;;;;5208403;28;20306;-64
2023/08/14 00:45:56;;;;;;;5.07;4.57;;;19.00;99.90;;;;;;5207483;28;20117;-64
2023/08/14 00:48:28;;;;;;;5.32;4.63;;;19.00;99.90;;;;;;5208372;28;20044;-64
2023/08/14 00:51:00;;;;;;;5.95;5.20;;;19.00;99.90;;;;;;5224252;28;20044;-64
2023/08/14 00:53:32;;;;;;;5.32;4.75;;;19.10;99.90;;;;;;5208529;28;20040;-64
2023/08/14 00:56:08;;;;;;;6.95;4.90;;;19.10;99.90;;;;;;5207766;28;20039;-64
2023/08/14 00:58:42;;;;;;;5.05;4.32;;;19.10;99.90;;;;;;5224293;28;20033;-64
2023/08/14 01:01:14;;;;;;;5.32;4.82;;;19.10;99.90;;;;;;5226658;23;20087;-69
2023/08/14 01:03:52;;;;;;;5.90;4.68;;;19.10;99.90;;;;;;5254339;23;20059;-70
2023/08/14 01:06:29;;;;;;;6.07;5.10;;;19.10;99.90;;;;;;5165664;28;20045;-66
2023/08/14 01:09:01;;;;;;;5.15;4.65;;;19.10;99.90;;;;;;5180653;28;20045;-68
2023/08/14 01:12:15;;;;;;;5.57;4.47;;;19.10;99.90;;;;;;5169271;28;20045;-69
2023/08/14 01:14:54;;;;;;;6.05;4.97;;;19.00;99.90;;;;;;5164111;28;20038;-68
2023/08/14 01:17:32;;;;;;;5.38;4.88;;;19.00;99.90;;;;;;5155798;28;20054;-67
2023/08/14 01:20:11;;;;;;;5.10;4.15;;;19.10;99.90;;;;;;5185455;28;20029;-70
2023/08/14 01:23:22;;;;;;;5.57;4.35;;;19.10;99.90;;;;;;5185064;28;20049;-69
2023/08/14 01:25:57;;;;;;;5.95;4.60;;;19.00;99.90;;;;;;5167318;28;20040;-69
2023/08/14 01:28:34;;;;;;;;;;;18.90;99.90;;;;;;5151639;28;20060;-70
2023/08/14 01:31:07;;;;;;;7.43;4.75;;;18.90;99.90;;;;;;5166933;28;19923;-69
2023/08/14 01:33:39;;;;;;;7.45;4.90;;;18.80;99.90;;;;;;5201233;28;20034;-68
2023/08/14 01:36:38;;;;;;;7.03;5.35;;;18.70;99.90;;;;;;5183397;28;20083;-69
2023/08/14 01:39:13;;;;;;;7.43;5.22;;;18.70;99.90;;;;;;5168010;28;20044;-69
2023/08/14 01:42:11;;;;;;;6.10;5.40;;;18.70;99.90;;;;;;5185674;28;20514;-68
2023/08/14 01:44:49;;;;;;;6.65;5.55;;;18.70;99.90;;;;;;5176483;28;20049;-68
2023/08/14 01:47:24;;;;;;;7.15;4.88;;;18.60;99.90;;;;;;5149465;28;20045;-69
2023/08/14 01:50:02;;;;;;;5.95;5.10;;;18.60;99.90;;;;;;5170356;28;20254;-68
2023/08/14 01:52:37;;;;;;;6.40;5.38;;;18.50;99.90;;;;;;5189448;28;20052;-68
2023/08/14 01:55:09;;;;;;;5.05;4.43;;;18.40;99.90;;;;;;5167433;28;20556;-67
2023/08/14 01:57:46;;;;;;;6.47;4.90;;;18.30;99.90;;;;;;5167317;28;20052;-69
2023/08/14 02:00:20;;;;;;;6.75;5.03;;;18.30;99.90;;;;;;5160915;28;20049;-70
2023/08/14 02:02:56;;;;;;;4.60;4.20;;;18.40;99.90;;;;;;5167991;28;20038;-70
2023/08/14 02:05:28;;;;;;;7.20;5.47;;;18.30;99.90;;;;;;5183383;28;20052;-68
2023/08/14 02:08:00;;;;;;;7.07;5.45;;;18.30;99.90;;;;;;5178839;28;20048;-67
2023/08/14 02:10:39;;;;;;;6.70;5.10;;;18.30;99.90;;;;;;5180331;28;20326;-70
2023/08/14 02:13:10;;;;;;;5.75;5.05;;;18.20;99.90;;;;;;5160561;28;20350;-69
2023/08/14 02:15:47;;;;;;;6.25;5.28;;;18.20;99.90;;;;;;5157713;28;20038;-71
2023/08/14 02:18:21;;;;;;;6.22;5.30;;;18.20;99.90;;;;;;5142124;28;20052;-70
2023/08/14 02:21:01;;;;;;;6.32;5.47;;;18.20;99.90;;;;;;5161307;28;20026;-69
2023/08/14 02:23:33;;;;;;;6.38;4.93;;;18.20;99.90;;;;;;5172103;28;20040;-69
2023/08/14 02:26:05;;;;;;;5.38;4.88;;;18.20;99.90;;;;;;5166170;28;20041;-70
2023/08/14 02:28:39;;;;;;;7.28;5.82;;;18.20;99.90;;;;;;5142368;28;20212;-69
2023/08/14 02:31:11;;;;;;;6.65;5.65;;;18.20;99.90;;;;;;5158101;28;20030;-68
2023/08/14 02:33:50;;;;;;;5.75;4.97;;;18.20;99.90;;;;;;5168333;28;20029;-70
2023/08/14 02:36:24;;;;;;;5.72;5.10;;;18.10;99.90;;;;;;5188235;28;20041;-70
2023/08/14 02:38:59;;;;;;;6.82;5.65;;;18.10;99.90;;;;;;5174441;28;20030;-69
2023/08/14 02:41:31;;;;;;;7.78;5.20;;;18.10;99.90;;;;;;5147160;28;20053;-66
2023/08/14 02:44:05;;;;;;;7.20;5.68;;;18.10;99.90;;;;;;5163532;28;20302;-69
2023/08/14 02:46:39;;;;;;;6.97;5.93;;;18.10;99.90;;;;;;5158116;28;20041;-69
2023/08/14 02:49:10;;;;;;;8.23;5.83;;;18.00;99.90;;;;;;5154958;28;20048;-68
2023/08/14 02:51:49;;;;;;;7.28;5.47;;;18.00;99.90;;;;;;5190178;28;20327;-69
2023/08/14 02:54:24;;;;;;;7.00;6.03;;;18.00;99.90;;;;;;5157112;28;20041;-67
2023/08/14 02:56:56;;;;;;;6.30;5.45;;;18.00;99.90;;;;;;5167438;28;20284;-67
2023/08/14 02:59:32;;;;;;;5.55;5.00;;;18.10;99.90;;;;;;5189442;28;20045;-69
2023/08/14 03:02:03;;;;;;;7.68;6.43;;;18.00;99.90;;;;;;5185379;28;20040;-69
2023/08/14 03:04:37;;;;;;;6.32;5.53;;;18.00;99.90;;;;;;5186485;28;20049;-69
2023/08/14 03:07:08;;;;;;;6.85;6.15;;;18.10;99.90;;;;;;5172663;28;20265;-69
2023/08/14 03:09:40;;;;;;;6.95;6.00;;;18.10;99.90;;;;;;5176375;28;20045;-70
2023/08/14 03:12:11;;;;;;;8.13;5.57;;;18.10;99.90;;;;;;5183917;28;20047;-69
2023/08/14 03:14:45;;;;;;;8.35;6.30;;;18.10;99.90;;;;;;5167376;28;20046;-66
2023/08/14 03:17:17;;;;;;;7.75;6.07;;;18.10;99.90;;;;;;5166356;28;20049;-69
2023/08/14 03:19:49;;;;;;;7.47;5.95;;;18.00;99.90;;;;;;5183639;28;20055;-69
2023/08/14 03:22:21;;;;;;;6.82;5.57;;;18.00;99.90;;;;;;5167793;28;20037;-69
2023/08/14 03:24:54;;;;;;;6.43;5.32;;;18.00;99.90;;;;;;5163670;28;20554;-69
2023/08/14 03:27:28;;;;;;;7.07;5.80;;;18.00;99.90;;;;;;5180362;28;20025;-69
2023/08/14 03:30:07;;;;;;;6.55;5.85;;;18.00;99.90;;;;;;5163107;28;20034;-67
2023/08/14 03:32:45;;;;;;;6.60;5.30;;;18.00;99.90;;;;;;5146792;28;20038;-69
2023/08/14 03:35:16;;;;;;;7.65;5.85;;;17.90;99.90;;;;;;5162521;28;20030;-67
2023/08/14 03:37:48;;;;;;;7.15;6.22;;;18.00;99.90;;;;;;5162844;28;20040;-70
2023/08/14 03:40:26;;;;;;;6.97;6.22;;;17.90;99.90;;;;;;5178600;28;20049;-70
2023/08/14 03:42:57;;;;;;;7.85;6.00;;;17.80;99.90;;;;;;5156455;28;20050;-69
2023/08/14 03:45:31;;;;;;;7.03;5.95;;;17.90;99.90;;;;;;5160526;28;20052;-67
2023/08/14 03:48:13;;;;;;;7.03;5.80;;;17.90;99.90;;;;;;5163211;28;20035;-66
2023/08/14 03:50:47;;;;;;;6.85;5.68;;;17.80;99.90;;;;;;5163663;28;20044;-68
2023/08/14 03:53:19;;;;;;;6.82;5.88;;;17.90;99.90;;;;;;5157727;28;20037;-69
2023/08/14 03:55:59;;;;;;;6.68;5.93;;;17.90;99.90;;;;;;5146704;28;20045;-69
2023/08/14 03:58:35;;;;;;;7.93;5.80;;;17.90;99.90;;;;;;5177514;28;20045;-68
2023/08/14 04:01:07;;;;;;;7.55;6.07;;;17.90;99.90;;;;;;5163553;28;20030;-69
2023/08/14 04:03:43;;;;;;;7.53;5.95;;;18.00;99.90;;;;;;5165476;28;20041;-67
2023/08/14 04:06:15;;;;;;;7.68;6.40;;;18.00;99.90;;;;;;5199346;28;20052;-68
2023/08/14 04:08:50;;;;;;;7.07;5.75;;;18.00;99.90;;;;;;5171998;28;20038;-68
2023/08/14 04:11:24;;;;;;;6.35;5.38;;;18.10;99.90;;;;;;5145830;28;20038;-68
2023/08/14 04:14:02;;;;;;;5.85;5.25;;;18.20;99.90;;;;;;5149743;28;20050;-68
2023/08/14 04:16:44;;;;;;;5.22;4.72;;;18.30;99.90;;;;;;5177510;28;20022;-68
2023/08/14 04:19:19;;;;;;;5.68;4.75;;;18.30;99.90;;;;;;5141198;28;20056;-67
2023/08/14 04:21:54;;;;;;;8.68;5.45;;;18.40;99.90;;;;;;5178819;28;20514;-68
2023/08/14 04:24:28;;;;;;;10.25;5.60;;;18.60;99.90;;;;;;5164434;28;20383;-68
2023/08/14 04:27:03;;;;;;;;;;;18.80;99.90;;;;;;5127272;28;20065;-67
2023/08/14 04:29:34;;;;;;;6.25;5.50;;;18.90;99.90;;;;;;5177634;28;19968;-67
2023/08/14 04:32:12;;;;;;;5.75;5.00;;;19.10;99.90;;;;;;5158205;28;20148;-72
2023/08/14 04:34:46;;;;;;;5.78;4.55;;;19.20;99.90;;;;;;5162958;28;20468;-69
2023/08/14 04:37:20;;;;;;;5.78;4.88;;;19.50;99.90;;;;;;5145395;28;20046;-69
2023/08/14 04:39:55;;;;;;;5.30;4.45;;;19.70;99.90;;;;;;5145889;28;20203;-70
2023/08/14 04:42:33;;;;;;;4.65;4.20;;;19.90;99.90;;;;;;5160813;28;20057;-69
2023/08/14 04:45:11;;;;;;;5.25;4.45;;;19.90;99.90;;;;;;5160848;28;20034;-71
2023/08/14 04:47:45;;;;;;;4.78;4.28;;;20.10;99.90;;;;;;5162532;28;20502;-68
2023/08/14 04:50:17;;;;;;;6.28;4.55;;;20.30;99.90;;;;;;5162536;28;20042;-68
2023/08/14 04:52:49;;;;;;;4.72;4.22;;;20.50;99.90;;;;;;5160616;28;20052;-68
2023/08/14 04:55:23;;;;;;;7.95;4.55;;;20.90;65.70;;;;;;5161233;28;20046;-70
2023/08/14 04:57:55;;;;;;;5.38;3.92;;;21.00;1.00;;;;;;5141346;28;20044;-68
2023/08/14 05:00:31;;;;;;;4.45;3.90;;;21.10;1.00;;;;;;5155974;28;20030;-70
2023/08/14 05:03:10;;;;;;;5.22;4.25;;;21.00;1.00;;;;;;5142166;28;20446;-69
2023/08/14 05:05:51;;;;;;;4.45;3.97;;;21.20;1.00;;;;;;5145433;28;20060;-69
2023/08/14 05:08:23;;;;;;;4.60;4.15;;;21.50;1.00;;;;;;5162640;28;20041;-71
2023/08/14 05:10:58;;;;;;;4.88;3.97;;;21.80;1.00;;;;;;5164216;28;20041;-69
2023/08/14 05:13:32;;;;;;;5.50;4.88;;;22.10;1.00;;;;;;5129237;28;21420;-71
2023/08/14 05:16:09;;;;;;;4.40;4.00;;;22.30;1.00;;;;;;5154347;28;20058;-71
2023/08/14 05:18:41;;;;;;;4.82;4.32;;;22.40;1.00;;;;;;5165270;28;20364;-68
2023/08/14 05:21:17;;;;;;;4.95;4.15;;;22.70;1.00;;;;;;5183501;28;20030;-68
2023/08/14 05:23:50;;;;;;;5.13;4.43;;;22.90;1.00;;;;;;5166950;28;20040;-72
2023/08/14 05:26:24;;;;;;;5.00;4.30;;;23.10;1.00;;;;;;5165493;28;20077;-70
2023/08/14 05:28:55;;;;;;;4.97;4.30;;;23.40;1.00;;;;;;5148519;28;20046;-71
2023/08/14 05:31:30;;;;;;;5.45;4.03;;;23.40;1.00;;;;;;5181028;28;20038;-70
2023/08/14 05:34:02;;;;;;;;;;;23.70;1.00;;;;;;5149497;28;20266;-71
2023/08/14 05:36:36;;;;;;;5.40;4.47;;;24.00;99.90;;;;;;5165688;28;19918;-71
2023/08/14 05:39:14;;;;;;;6.78;4.88;;;24.30;1.00;;;;;;5165834;28;20042;-71
2023/08/14 05:41:50;;;;;;;5.07;4.40;;;24.50;99.90;;;;;;5148750;28;20044;-71
2023/08/14 05:44:22;;;;;;;5.25;4.15;;;24.80;99.90;;;;;;5149078;28;20045;-71
2023/08/14 05:47:01;;;;;;;5.32;3.90;;;25.10;99.90;;;;;;5161172;28;20049;-71
2023/08/14 05:49:38;;;;;;;4.22;3.78;;;25.10;40.10;;;;;;5165671;28;20397;-71
2023/08/14 05:52:10;;;;;;;6.25;4.47;;;25.10;99.90;;;;;;5165614;28;20038;-70
2023/08/14 05:54:42;;;;;;;6.22;4.47;;;25.20;99.90;;;;;;5164459;28;20098;-70
2023/08/14 05:57:14;;;;;;;4.30;3.85;;;25.30;1.00;;;;;;5147757;28;20052;-72
2023/08/14 05:59:50;;;;;;;4.57;3.85;;;25.30;1.00;;;;;;5170760;28;20042;-71
2023/08/14 06:02:22;;;;;;;5.88;3.97;;;25.60;1.00;;;;;;5168381;28;20041;-70
2023/08/14 06:04:54;;;;;;;8.07;4.22;;;25.50;1.00;;;;;;5175974;28;20038;-72
2023/08/14 06:07:28;;;;;;;4.57;3.90;;;25.70;1.00;;;;;;5148119;28;20043;-71
2023/08/14 06:10:02;;;;;;;5.90;4.47;;;25.80;1.00;;;;;;5161498;28;20041;-70
2023/08/14 06:12:42;;;;;;;6.18;4.38;;;26.00;99.90;;;;;;5179940;28;20036;-72
2023/08/14 06:15:14;;;;;;;5.50;4.10;;;26.40;99.90;;;;;;5157278;28;20231;-72
2023/08/14 06:17:49;;;;;;;4.60;3.88;;;26.90;1.00;;;;;;5148013;28;20039;-72
2023/08/14 06:20:26;;;;;;;;;;;27.10;1.00;;;;;;5159991;28;20043;-71
2023/08/14 06:23:00;;;;;;;4.45;4.05;;;27.40;1.00;;;;;;5145070;28;19924;-72
2023/08/14 06:25:32;;;;;;;;;;;27.60;99.90;;;;;;5133488;28;20078;-71
2023/08/14 06:28:04;;;;;;;5.28;3.75;;;27.90;99.90;;;;;;5178162;28;19913;-71
2023/08/14 06:30:36;;;;;;;4.30;3.30;;;28.00;1.00;;;;;;5162470;28;20041;-71
2023/08/14 06:33:08;;;;;;;4.80;3.90;;;27.80;1.00;;;;;;5194071;28;20048;-70
2023/08/14 06:35:39;;;;;;;4.25;3.53;;;27.80;1.00;;;;;;5166497;28;20072;-71
2023/08/14 06:38:14;;;;;;;4.38;3.88;;;27.70;1.00;;;;;;5163695;28;20058;-72
2023/08/14 06:40:46;;;;;;;3.55;3.25;;;27.50;1.00;;;;;;5163085;28;20330;-71
2023/08/14 06:43:20;;;;;;;3.42;3.13;;;27.40;1.00;;;;;;5163540;28;20050;-70
2023/08/14 06:45:54;;;;;;;4.30;3.70;;;27.40;1.00;;;;;;5162208;28;20033;-71
2023/08/14 06:48:32;;;;;;;5.57;3.65;;;27.50;1.00;;;;;;5160769;28;20072;-71
2023/08/14 06:51:04;;;;;;;4.65;3.33;;;27.50;1.00;;;;;;5184481;28;20250;-71
2023/08/14 06:53:35;;;;;;;5.90;3.58;;;27.50;1.00;;;;;;5145614;28;20038;-71
2023/08/14 06:56:09;;;;;;;4.68;3.58;;;27.20;1.00;;;;;;5146461;28;20366;-69
2023/08/14 06:58:44;;;;;;;4.18;3.25;;;27.00;99.90;;;;;;5162845;28;20438;-69
2023/08/14 07:01:16;;;;;;;4.30;3.83;;;27.30;1.00;;;;;;5161983;28;20075;-72
2023/08/14 07:03:50;;;;;;;4.43;3.72;;;27.10;99.90;;;;;;5162959;28;20048;-70
2023/08/14 07:06:25;;;;;;;4.72;3.45;;;27.50;99.90;;;;;;5146943;28;20053;-71
2023/08/14 07:08:56;;;;;;;4.03;3.60;;;27.30;99.90;;;;;;5157405;28;20055;-70
2023/08/14 07:11:36;;;;;;;3.95;3.65;;;27.50;99.90;;;;;;5144368;28;20053;-70
2023/08/14 07:14:08;;;;;;;5.05;3.60;;;27.70;1.00;;;;;;5179342;28;20241;-70
2023/08/14 07:16:42;;;;;;;4.28;3.42;;;27.80;99.90;;;;;;5178093;28;20044;-70
2023/08/14 07:19:20;;;;;;;3.53;3.20;;;28.00;1.00;;;;;;5179072;28;20057;-71
2023/08/14 07:21:52;;;;;;;3.58;3.20;;;28.00;1.00;;;;;;5190331;28;20072;-71
2023/08/14 07:24:24;;;;;;;3.88;3.53;;;28.20;99.90;;;;;;5162948;28;20060;-69
2023/08/14 07:26:59;;;;;;;3.58;3.28;;;28.30;1.00;;;;;;5147043;28;20056;-68
2023/08/14 07:29:32;;;;;;;4.57;3.60;;;28.20;99.90;;;;;;5135948;28;20038;-69
2023/08/14 07:32:10;;;;;;;3.90;3.38;;;28.30;1.00;;;;;;5144145;28;20033;-70
2023/08/14 07:34:44;;;;;;;4.20;3.80;;;28.30;99.90;;;;;;5162584;28;20030;-68
2023/08/14 07:37:15;;;;;;;5.07;3.47;;;28.60;99.90;;;;;;5162684;28;20041;-69
2023/08/14 07:39:47;;;;;;;4.05;3.22;;;28.60;82.10;;;;;;5162563;28;20139;-68
2023/08/14 07:42:22;;;;;;;4.75;3.75;;;28.90;1.00;;;;;;5150019;28;20049;-69
2023/08/14 07:44:56;;;;;;;3.80;3.50;;;28.50;1.00;;;;;;5157698;28;20044;-69
2023/08/14 07:47:31;;;;;;;4.32;3.55;;;28.60;99.90;;;;;;5160829;28;20056;-70
2023/08/14 07:50:06;;;;;;;;;;;28.50;1.00;;;;;;5159577;28;20388;-69
2023/08/14 07:52:39;;;;;;;4.07;3.67;;;28.40;99.90;;;;;;5161088;28;19927;-70
2023/08/14 07:55:13;;;;;;;3.92;3.50;;;28.40;1.00;;;;;;5181258;28;20056;-70
2023/08/14 07:57:48;;;;;;;3.40;3.10;;;28.10;99.90;;;;;;5164074;28;20037;-70
2023/08/14 08:00:20;;;;;;;4.32;3.50;;;28.00;1.00;;;;;;5155822;28;20052;-70
2023/08/14 08:02:56;;;;;;;3.60;3.28;;;28.20;1.00;;;;;;5170311;28;20060;-71
2023/08/14 08:05:33;;;;;;;3.70;3.38;;;28.50;1.00;;;;;;5175600;28;20048;-70
2023/08/14 08:08:07;;;;;;;3.97;3.58;;;28.70;1.00;;;;;;5162648;28;20034;-70
2023/08/14 08:10:44;;;;;;;5.22;3.25;;;29.00;1.00;;;;;;5162165;28;20037;-68
2023/08/14 08:13:16;;;;;;;4.32;3.30;;;28.80;1.00;;;;;;5170414;28;20038;-73
2023/08/14 08:15:50;;;;;;;5.47;3.35;;;29.10;99.90;;;;;;5177004;28;20056;-68
2023/08/14 08:18:21;;;;;;;4.88;3.10;;;29.40;95.50;;;;;;5178449;28;20037;-70
2023/08/14 08:20:58;;;;;;;4.43;3.10;;;29.40;99.90;;;;;;5161099;28;20048;-67
2023/08/14 08:23:30;;;;;;;5.22;3.28;;;29.20;1.00;;;;;;5163505;28;20063;-68
2023/08/14 08:26:05;;;;;;;5.40;2.67;;;29.30;45.20;;;;;;5161204;28;20542;-70
2023/08/14 08:28:42;;;;;;;3.45;3.10;;;29.50;99.90;;;;;;5119795;28;20045;-71
2023/08/14 08:31:14;;;;;;;3.58;3.28;;;29.50;1.00;;;;;;5137359;28;20500;-71
2023/08/14 08:33:47;;;;;;;3.03;2.72;;;29.30;11.30;;;;;;5145789;28;20044;-70
2023/08/14 08:36:19;;;;;;;3.20;2.90;;;29.60;99.70;;;;;;5162866;28;20048;-70
2023/08/14 08:38:52;;;;;;;3.25;2.67;;;30.20;99.90;;;;;;5150926;28;20056;-70
2023/08/14 08:41:38;;;;;;;2.80;2.50;;;30.50;99.90;;;;;;5176150;28;20036;-70
2023/08/14 08:44:19;;;;;;;2.47;2.28;;;30.80;1.00;;;;;;5145220;28;20054;-69
2023/08/14 08:46:57;;;;;;;5.47;2.22;;;31.00;1.00;;;;;;5143897;28;20052;-71
2023/08/14 08:49:33;;;;;;;2.63;2.40;;;31.40;99.90;;;;;;5152557;28;20037;-70
2023/08/14 08:52:06;;;;;;;2.30;2.10;;;31.30;99.90;;;;;;5181832;28;20050;-71
2023/08/14 08:54:46;;;;;;;2.50;1.98;;;30.60;99.90;;;;;;5178108;28;20052;-71
2023/08/14 08:57:20;;;;;;;4.20;2.50;;;30.50;1.00;;;;;;5182478;28;20038;-70
2023/08/14 08:59:56;;;;;;;2.75;2.40;;;30.30;1.00;;;;;;5157882;28;20341;-71
2023/08/14 09:02:30;;;;;;;2.92;1.90;;;30.50;1.00;;;;;;5173117;28;20038;-73
2023/08/14 09:05:02;;;;;;;;;;;31.00;93.00;;;;;;5165102;28;20050;-71
2023/08/14 09:07:34;;;;;;;3.08;2.10;;;31.60;99.90;;;;;;5203490;28;19923;-72
2023/08/14 09:10:09;;;;;;;2.08;1.88;;;32.10;99.90;;;;;;5162679;28;20558;-71
2023/08/14 09:12:40;;;;;;;2.33;2.13;;;31.80;1.00;;;;;;5165181;28;20044;-70
2023/08/14 09:15:16;;;;;;;8.43;2.20;;;31.90;1.00;;;;;;5164186;28;20033;-70
2023/08/14 09:17:50;;;;;;;2.65;2.00;;;31.90;1.00;;;;;;5164907;28;20360;-70
2023/08/14 09:20:25;;;;;;;1.75;1.65;;;32.20;1.00;;;;;;5181238;28;20472;-71
2023/08/14 09:23:05;;;;;;;3.40;2.05;;;32.10;1.00;;;;;;5134496;28;20064;-71
2023/08/14 09:25:45;;;;;;;2.42;2.20;;;32.10;99.90;;;;;;5181834;28;20042;-71
2023/08/14 09:28:18;;;;;;;2.10;1.70;;;32.00;1.00;;;;;;5154054;28;20042;-71
2023/08/14 09:30:52;;;;;;;2.30;2.10;;;32.00;99.90;;;;;;5160515;28;20050;-71
2023/08/14 09:33:29;;;;;;;2.63;1.90;;;32.30;99.90;;;;;;5172385;28;20055;-71
2023/08/14 09:36:02;;;;;;;1.95;1.75;;;32.30;99.90;;;;;;5160792;28;20080;-70
2023/08/14 09:38:40;;;;;;;2.00;1.80;;;31.80;99.90;;;;;;5183652;28;20026;-71
2023/08/14 09:41:12;;;;;;;1.95;1.85;;;31.90;99.90;;;;;;5161852;28;20044;-69
2023/08/14 09:43:48;;;;;;;2.20;2.00;;;31.90;1.00;;;;;;5144156;28;20049;-71
2023/08/14 09:46:22;;;;;;;1.95;1.67;;;32.30;99.90;;;;;;5150318;28;20364;-72
2023/08/14 09:48:56;;;;;;;;;;;32.50;99.90;;;;;;5149254;28;20281;-69
2023/08/14 09:51:34;;;;;;;1.80;1.70;;;32.70;99.90;;;;;;5120324;28;19921;-70
2023/08/14 09:54:11;;;;;;;1.95;1.80;;;32.30;99.90;;;;;;5135979;28;20054;-70
2023/08/14 09:56:44;;;;;;;1.90;1.80;;;32.60;99.90;;;;;;5162885;28;20034;-69
2023/08/14 09:59:20;;;;;;;1.73;1.60;;;33.00;99.90;;;;;;5180312;28;20042;-71
2023/08/14 10:01:59;;;;;;;1.83;1.73;;;32.90;1.00;;;;;;5164558;28;20038;-72
2023/08/14 10:04:35;;;;;;;2.10;1.90;;;32.50;1.00;;;;;;5161415;28;20465;-70
2023/08/14 10:07:09;;;;;;;6.30;1.88;;;32.70;99.90;;;;;;5162669;28;20053;-71
2023/08/14 10:09:46;;;;;;;2.58;2.28;;;32.70;99.90;;;;;;5171172;28;20041;-72
2023/08/14 10:12:22;;;;;;;2.63;2.05;;;32.90;1.00;;;;;;5132721;28;20045;-70
2023/08/14 10:15:08;;;;;;;4.25;1.80;;;33.10;1.00;;;;;;5182407;28;20045;-71
2023/08/14 10:18:11;;;;;;;2.05;1.85;;;33.40;1.00;;;;;;5149140;28;20038;-71
2023/08/14 10:20:47;;;;;;;1.90;1.67;;;32.90;1.00;;;;;;5164934;28;20056;-71
2023/08/14 10:23:18;;;;;;;4.82;1.95;;;33.40;1.00;;;;;;5168135;28;20276;-71
2023/08/14 10:25:56;;;;;;;3.70;1.88;;;33.60;1.00;;;;;;5184718;28;20053;-71
2023/08/14 10:28:28;;;;;;;2.22;1.80;;;33.80;1.00;;;;;;5154459;28;20037;-74
2023/08/14 10:31:09;;;;;;;3.30;1.95;;;34.50;1.00;;;;;;5163376;28;20254;-69
2023/08/14 10:33:42;;;;;;;4.53;1.85;;;34.30;1.00;;;;;;5183404;28;20040;-71
2023/08/14 10:36:27;;;;;;;2.00;1.75;;;34.00;1.00;;;;;;5184939;28;20407;-73
2023/08/14 10:39:11;;;;;;;2.67;1.77;;;34.60;1.00;;;;;;5152702;28;20056;-71
2023/08/14 10:41:49;;;;;;;2.15;1.67;;;35.30;1.00;;;;;;5147625;28;20463;-71
2023/08/14 10:44:37;;;;;;;2.03;1.88;;;35.50;1.00;;;;;;5148317;28;20136;-70
2023/08/14 10:47:16;;;;;;;1.80;1.70;;;35.80;1.00;;;;;;5178173;28;20038;-71
2023/08/14 10:49:51;;;;;;;1.90;1.70;;;35.40;1.00;;;;;;5180933;28;20073;-70
2023/08/14 10:52:31;;;;;;;2.40;1.83;;;35.10;1.00;;;;;;5160546;28;20604;-72
2023/08/14 10:55:05;;;;;;;2.38;1.67;;;35.40;1.00;;;;;;5144141;28;20197;-71
2023/08/14 10:57:38;;;;;;;2.03;1.85;;;35.20;1.00;;;;;;5149594;28;20037;-72
2023/08/14 11:00:27;;;;;;;2.10;1.90;;;35.60;1.00;;;;;;5155021;28;20528;-70
2023/08/14 11:03:06;;;;;;;2.30;2.10;;;35.10;1.00;;;;;;5158183;28;20285;-71
2023/08/14 11:05:42;;;;;;;2.50;2.20;;;34.70;1.00;;;;;;5131491;28;20037;-71
2023/08/14 11:08:15;;;;;;;2.40;2.20;;;34.90;1.00;;;;;;5130327;28;20046;-71
2023/08/14 11:10:50;;;;;;;2.10;1.70;;;35.20;1.00;;;;;;5148168;28;20411;-69
2023/08/14 11:13:25;;;;;;;2.00;1.80;;;35.20;1.00;;;;;;5164267;28;20263;-71
2023/08/14 11:16:00;;;;;;;3.75;2.05;;;35.50;1.00;;;;;;5162850;28;20049;-70
2023/08/14 11:18:35;;;;;;;2.05;1.85;;;35.50;1.00;;;;;;5163724;28;20061;-71
2023/08/14 11:21:07;;;;;;;2.10;1.90;;;35.80;1.00;;;;;;5172230;28;20257;-71
2023/08/14 11:23:38;;;;;;;2.72;1.98;;;35.40;1.00;;;;;;5178978;28;20033;-71
2023/08/14 11:26:15;;;;;;;3.08;1.95;;;35.50;1.00;;;;;;5175187;28;20033;-74
2023/08/14 11:28:52;;;;;;;2.30;2.10;;;35.50;1.00;;;;;;5161886;28;20042;-72
2023/08/14 11:31:29;;;;;;;2.08;1.88;;;34.90;1.00;;;;;;5125599;28;20065;-71
2023/08/14 11:34:09;;;;;;;3.58;2.00;;;35.30;1.00;;;;;;5179606;28;20046;-71
2023/08/14 11:36:49;;;;;;;2.22;1.85;;;35.30;1.00;;;;;;5181321;28;20022;-70
2023/08/14 11:39:21;;;;;;;3.63;1.83;;;35.10;1.00;;;;;;5164278;28;20046;-72
2023/08/14 11:41:53;;;;;;;2.17;2.05;;;36.10;1.00;;;;;;5132643;28;20238;-70
2023/08/14 11:44:30;;;;;;;1.90;1.80;;;36.80;1.00;;;;;;5162000;28;20048;-73
2023/08/14 11:47:07;;;;;;;1.95;1.70;;;36.20;1.00;;;;;;5146648;28;20262;-72
2023/08/14 11:49:39;;;;;;;2.35;1.60;;;35.60;1.00;;;;;;5155090;28;20049;-72
2023/08/14 11:52:13;;;;;;;2.10;1.90;;;34.90;1.00;;;;;;5156500;28;20104;-71
2023/08/14 11:54:45;;;;;;;1.80;1.70;;;35.50;1.00;;;;;;5155809;28;20034;-72
2023/08/14 11:57:17;;;;;;;2.10;1.92;;;35.50;1.00;;;;;;5134427;28;20042;-72
2023/08/14 11:59:52;;;;;;;2.22;2.03;;;36.10;1.00;;;;;;5166717;28;20037;-72
2023/08/14 12:02:26;;;;;;;2.00;1.80;;;36.10;1.00;;;;;;5195277;28;20043;-71
2023/08/14 12:05:02;;;;;;;2.25;1.90;;;36.20;1.00;;;;;;5151157;28;20046;-72
2023/08/14 12:07:44;;;;;;;3.17;1.67;;;35.90;1.00;;;;;;5173448;28;20069;-72
2023/08/14 12:10:19;;;;;;;7.88;3.03;;;36.00;1.00;;;;;;5170453;28;20022;-72
2023/08/14 12:12:53;;;;;;;1.85;1.65;;;36.50;1.00;;;;;;5168333;28;20052;-71
2023/08/14 12:15:26;;;;;;;1.70;1.60;;;36.70;1.00;;;;;;5152101;28;20038;-71
2023/08/14 12:18:02;;;;;;;2.13;1.90;;;37.40;1.00;;;;;;5166139;28;20056;-71
2023/08/14 12:20:39;;;;;;;3.15;1.88;;;38.00;1.00;;;;;;5186807;28;20030;-71
2023/08/14 12:23:15;;;;;;;2.00;1.73;;;38.00;1.00;;;;;;5151366;28;20037;-73
2023/08/14 12:25:47;;;;;;;1.67;1.55;;;36.10;1.00;;;;;;5150647;28;20315;-70
2023/08/14 12:28:24;;;;;;;2.05;1.65;;;35.90;1.00;;;;;;5178636;28;20064;-71
2023/08/14 12:30:56;;;;;;;2.22;2.03;;;36.80;1.00;;;;;;5164999;28;20050;-71
2023/08/14 12:33:29;;;;;;;1.88;1.77;;;36.30;1.00;;;;;;5171039;28;20342;-71
2023/08/14 12:36:03;;;;;;;2.40;1.88;;;36.10;1.00;;;;;;5186148;28;20745;-72
2023/08/14 12:38:35;;;;;;;1.90;1.80;;;36.50;1.00;;;;;;5172368;28;20049;-71
2023/08/14 12:41:07;;;;;;;2.05;1.80;;;36.60;1.00;;;;;;5174164;28;20033;-71
2023/08/14 12:43:38;;;;;;;2.03;1.85;;;36.40;1.00;;;;;;5160184;28;20045;-71
2023/08/14 12:46:13;;;;;;;2.63;2.00;;;36.30;1.00;;;;;;5153797;28;20132;-71
2023/08/14 12:48:48;;;;;;;2.20;1.90;;;37.10;1.00;;;;;;5154368;28;20345;-71
2023/08/14 12:51:19;;;;;;;3.15;2.00;;;36.50;1.00;;;;;;5170612;28;20056;-71
2023/08/14 12:53:54;;;;;;;2.08;1.73;;;35.90;1.00;;;;;;5170051;28;20029;-71
2023/08/14 12:56:29;;;;;;;2.17;1.63;;;35.30;1.00;;;;;;5152146;28;20076;-70
2023/08/14 12:59:01;;;;;;;3.17;1.92;;;36.00;1.00;;;;;;5169112;28;20053;-71
2023/08/14 13:01:33;;;;;;;2.08;1.77;;;35.90;1.00;;;;;;5169777;28;20456;-70
2023/08/14 13:04:08;;;;;;;1.80;1.70;;;36.90;1.00;;;;;;5190156;28;20045;-71
2023/08/14 13:06:40;;;;;;;2.33;2.00;;;37.30;1.00;;;;;;5173158;28;20051;-70
2023/08/14 13:09:14;;;;;;;2.05;1.85;;;37.30;1.00;;;;;;5165245;28;20037;-71
2023/08/14 13:11:48;;;;;;;2.00;1.90;;;37.40;1.00;;;;;;5193129;28;20029;-71
2023/08/14 13:14:22;;;;;;;2.80;2.00;;;37.50;1.00;;;;;;5166728;28;20077;-70
2023/08/14 13:16:56;;;;;;;;;;;37.30;1.00;;;;;;5152402;28;20046;-70
2023/08/14 13:19:30;;;;;;;2.00;1.83;;;36.80;1.00;;;;;;5170695;28;20351;-71
2023/08/14 13:22:01;;;;;;;2.20;2.00;;;36.80;1.00;;;;;;5153219;28;20040;-72
2023/08/14 13:24:41;;;;;;;3.90;2.15;;;37.40;1.00;;;;;;5152816;28;20049;-73
2023/08/14 13:27:18;;;;;;;2.53;2.30;;;38.50;1.00;;;;;;5163716;28;20048;-71
2023/08/14 13:29:52;;;;;;;2.67;2.20;;;39.00;1.00;;;;;;5166374;28;20052;-72
2023/08/14 13:32:24;;;;;;;2.90;2.10;;;39.00;1.00;;;;;;5144316;28;20049;-70